Time;durP1;ratioP1;P1;durP2;ratioP2;P2;SDS_P1;SDS_P2;PMS_P1;PMS_P2;Temp;Humidity;BMP_temperature;BMP_pressure;BME280_temperature;BME280_humidity;BME280_pressure;Samples;Min_cycle;Max_cycle;Signal;HPM_P1;HPM_P2
2024/04/17 00:01:35;;;;;;;1.48;1.20;;;;;;;14.90;46.46;96319.00;5223489;27;20037;-79
2024/04/17 00:04:00;;;;;;;2.65;1.40;;;;;;;14.87;46.52;96311.72;5249883;27;20006;-80
2024/04/17 00:06:26;;;;;;;1.60;1.50;;;;;;;14.90;46.84;96312.97;5256604;27;20021;-80
2024/04/17 00:08:51;;;;;;;2.47;1.20;;;;;;;14.94;46.47;96308.69;5247590;27;20024;-81
2024/04/17 00:11:17;;;;;;;2.08;1.20;;;;;;;14.87;46.55;96313.56;5244741;27;20014;-80
2024/04/17 00:13:42;;;;;;;1.30;1.10;;;;;;;14.84;46.75;96306.28;5231114;27;20462;-80
2024/04/17 00:16:08;;;;;;;1.63;1.15;;;;;;;14.93;46.64;96317.66;5254849;27;20023;-82
2024/04/17 00:18:33;;;;;;;1.90;1.20;;;;;;;14.87;47.04;96309.09;5197739;27;20009;-82
2024/04/17 00:20:59;;;;;;;1.67;1.30;;;;;;;14.91;47.10;96314.53;5194789;27;20010;-83
2024/04/17 00:23:25;;;;;;;2.65;1.10;;;;;;;14.78;46.98;96309.00;5228446;27;20046;-82
2024/04/17 00:25:51;;;;;;;1.63;1.10;;;;;;;14.76;47.01;96311.16;5224917;27;20463;-82
2024/04/17 00:28:17;;;;;;;1.52;1.13;;;;;;;14.80;47.24;96311.34;5251299;27;20021;-82
2024/04/17 00:30:42;;;;;;;2.28;1.60;;;;;;;14.77;47.32;96320.56;5250669;27;20516;-83
2024/04/17 00:33:07;;;;;;;1.60;1.25;;;;;;;14.81;47.26;96314.75;5221537;27;20338;-84
2024/04/17 00:35:33;;;;;;;1.65;1.20;;;;;;;14.73;47.02;96293.38;5229348;27;20512;-83
2024/04/17 00:37:58;;;;;;;1.63;1.27;;;;;;;14.84;47.20;96304.44;5220861;27;20489;-82
2024/04/17 00:40:24;;;;;;;1.65;1.25;;;;;;;14.81;47.12;96299.78;5281869;27;20021;-83
2024/04/17 00:42:49;;;;;;;1.75;1.10;;;;;;;14.86;46.82;96314.66;5231290;27;20014;-83
2024/04/17 00:45:15;;;;;;;2.80;1.10;;;;;;;14.83;47.25;96309.97;5241506;27;20074;-83
2024/04/17 00:47:41;;;;;;;1.45;1.20;;;;;;;14.92;46.59;96302.97;5225567;27;20005;-83
2024/04/17 00:50:07;;;;;;;1.50;1.30;;;;;;;14.90;47.02;96305.13;5196475;27;20011;-84
2024/04/17 00:52:33;;;;;;;3.47;1.65;;;;;;;15.01;46.87;96309.09;5242062;27;20372;-84
2024/04/17 00:55:00;;;;;;;1.70;1.38;;;;;;;14.80;47.17;96293.00;5228122;27;20018;-84
2024/04/17 00:57:27;;;;;;;2.17;1.35;;;;;;;14.90;46.95;96303.25;5233826;27;20105;-84
2024/04/17 00:59:53;;;;;;;1.63;1.45;;;;;;;14.66;47.70;96327.06;5206816;27;20033;-86
2024/04/17 01:02:18;;;;;;;1.35;0.90;;;;;;;14.49;46.86;96311.13;5198611;27;20006;-89
2024/04/17 01:04:44;;;;;;;1.50;0.98;;;;;;;14.16;46.79;96292.84;5169293;27;1191270;-84
2024/04/17 01:07:10;;;;;;;1.55;1.00;;;;;;;14.30;47.39;96311.97;5249948;27;20061;-86
2024/04/17 01:09:35;;;;;;;1.92;1.13;;;;;;;14.03;47.49;96305.63;5253587;27;20037;-86
2024/04/17 01:12:01;;;;;;;1.30;1.17;;;;;;;14.15;47.13;96327.94;5206943;27;20811;-85
2024/04/17 01:14:26;;;;;;;1.25;0.90;;;;;;;14.01;47.12;96318.22;5254337;27;20087;-87
2024/04/17 01:16:52;;;;;;;1.58;0.90;;;;;;;14.29;47.07;96328.75;5190171;27;22067;-84
2024/04/17 01:19:17;;;;;;;1.38;1.00;;;;;;;14.09;47.45;96331.72;5260549;27;20021;-84
2024/04/17 01:21:42;;;;;;;1.42;1.10;;;;;;;14.07;47.42;96331.22;5257046;27;20041;-85
2024/04/17 01:24:08;;;;;;;1.10;0.90;;;;;;;14.00;47.38;96308.03;5277284;27;20555;-85
2024/04/17 01:26:33;;;;;;;1.20;0.80;;;;;;;14.32;46.41;96322.16;5251433;27;20070;-86
2024/04/17 01:28:59;;;;;;;1.02;0.90;;;;;;;13.48;47.53;96302.81;5226539;27;20025;-85
2024/04/17 01:31:24;;;;;;;0.93;0.82;;;;;;;13.97;47.37;96332.94;5225742;27;20016;-86
2024/04/17 01:33:52;;;;;;;2.47;0.90;;;;;;;13.95;46.73;96326.44;5219213;27;20013;-87
2024/04/17 01:36:18;;;;;;;0.80;0.60;;;;;;;13.91;46.82;96333.31;5241546;27;20018;-83
2024/04/17 01:38:45;;;;;;;1.17;0.90;;;;;;;13.82;46.74;96330.56;5273346;27;20474;-84
2024/04/17 01:41:10;;;;;;;1.05;0.88;;;;;;;13.67;46.78;96321.91;5239981;27;20016;-82
2024/04/17 01:43:36;;;;;;;0.80;0.60;;;;;;;13.64;46.13;96334.75;5224126;27;20006;-82
2024/04/17 01:46:01;;;;;;;1.38;0.93;;;;;;;13.25;47.08;96344.41;5258634;27;20038;-83
2024/04/17 01:48:29;;;;;;;2.35;0.60;;;;;;;13.33;46.89;96303.81;5245412;27;20009;-87
2024/04/17 01:50:55;;;;;;;0.95;0.73;;;;;;;13.25;46.87;96333.97;5220375;27;20002;-84
2024/04/17 01:53:20;;;;;;;1.05;0.70;;;;;;;13.50;46.60;96345.16;5246981;27;20017;-85
2024/04/17 01:55:45;;;;;;;0.90;0.70;;;;;;;13.48;46.65;96348.03;5256981;27;20053;-87
2024/04/17 01:58:12;;;;;;;1.00;0.70;;;;;;;13.36;46.84;96354.75;5203532;27;20468;-85
2024/04/17 02:00:38;;;;;;;1.00;0.60;;;;;;;13.20;46.97;96320.94;5255776;27;21351;-85
2024/04/17 02:03:06;;;;;;;1.27;0.90;;;;;;;13.42;47.22;96337.97;5245838;27;20026;-84
2024/04/17 02:05:32;;;;;;;1.10;0.65;;;;;;;13.45;46.84;96334.75;5251532;27;20028;-86
2024/04/17 02:07:58;;;;;;;0.85;0.65;;;;;;;13.40;47.24;96356.53;5246480;27;20013;-86
2024/04/17 02:10:23;;;;;;;1.00;0.57;;;;;;;13.33;47.89;96361.31;5234020;27;20018;-86
2024/04/17 02:12:49;;;;;;;1.80;0.80;;;;;;;13.20;47.58;96354.94;5282547;27;20088;-89
2024/04/17 02:15:14;;;;;;;1.55;0.45;;;;;;;13.13;48.04;96341.44;5263171;27;20120;-89
2024/04/17 02:17:40;;;;;;;0.85;0.30;;;;;;;12.91;47.79;96340.13;5236307;27;20435;-88
2024/04/17 02:20:09;;;;;;;0.50;0.40;;;;;;;13.05;47.57;96355.13;5251010;27;20025;-86
2024/04/17 02:22:34;;;;;;;1.08;0.30;;;;;;;12.93;48.04;96343.22;5253777;27;20042;-87
2024/04/17 02:25:00;;;;;;;0.50;0.30;;;;;;;13.29;47.33;96358.47;5225960;27;20009;-86
2024/04/17 02:27:25;;;;;;;0.43;0.20;;;;;;;12.98;47.63;96333.78;5279844;27;19997;-86
2024/04/17 02:29:52;;;;;;;0.22;0.20;;;;;;;13.09;48.01;96361.34;5230631;27;20476;-86
2024/04/17 02:32:17;;;;;;;0.38;0.20;;;;;;;12.90;47.62;96335.97;5245946;27;20433;-86
2024/04/17 02:34:43;;;;;;;0.20;0.20;;;;;;;13.07;47.65;96364.25;5251860;27;20002;-87
2024/04/17 02:37:09;;;;;;;0.93;0.30;;;;;;;13.04;47.50;96364.00;5219166;27;20050;-87
2024/04/17 02:39:34;;;;;;;0.73;0.38;;;;;;;12.93;48.60;96358.91;5243942;27;20663;-87
2024/04/17 02:42:00;;;;;;;0.20;0.20;;;;;;;13.03;47.86;96368.47;5284811;27;20025;-87
2024/04/17 02:44:25;;;;;;;0.52;0.30;;;;;;;13.04;48.32;96369.22;5256928;27;20147;-87
2024/04/17 02:46:50;;;;;;;0.20;0.20;;;;;;;13.02;47.96;96364.31;5236296;27;20447;-87
2024/04/17 02:49:16;;;;;;;0.68;0.30;;;;;;;13.04;48.13;96364.00;5228162;27;20095;-87
2024/04/17 02:51:42;;;;;;;0.55;0.30;;;;;;;12.96;47.83;96348.97;5222099;27;20017;-87
2024/04/17 02:54:07;;;;;;;0.30;0.20;;;;;;;12.97;47.50;96345.28;5239379;27;20423;-87
2024/04/17 02:56:33;;;;;;;0.30;0.20;;;;;;;12.89;47.75;96334.41;5271633;27;20026;-88
2024/04/17 02:58:58;;;;;;;0.70;0.35;;;;;;;12.90;48.15;96343.81;5196039;27;20018;-87
2024/04/17 03:01:24;;;;;;;0.30;0.30;;;;;;;12.94;47.72;96338.78;5251324;27;20014;-88
2024/04/17 03:03:49;;;;;;;0.60;0.30;;;;;;;13.11;47.96;96374.94;5275832;27;20006;-87
2024/04/17 03:06:15;;;;;;;1.20;0.40;;;;;;;13.18;47.71;96369.31;5274853;27;20009;-87
2024/04/17 03:08:40;;;;;;;0.30;0.30;;;;;;;13.15;47.13;96375.13;5220852;27;20006;-88
2024/04/17 03:11:06;;;;;;;0.40;0.30;;;;;;;12.86;47.58;96345.41;5253366;27;20020;-88
2024/04/17 03:13:31;;;;;;;0.35;0.30;;;;;;;12.79;48.09;96344.19;5228489;27;20023;-88
2024/04/17 03:16:01;;;;;;;0.75;0.50;;;;;;;13.06;47.66;96369.75;5302075;27;20045;-88
2024/04/17 03:18:26;;;;;;;1.40;0.30;;;;;;;13.01;47.67;96375.81;5246703;27;20017;-87
2024/04/17 03:20:51;;;;;;;0.70;0.43;;;;;;;12.84;47.82;96355.34;5240677;27;20054;-86
2024/04/17 03:23:17;;;;;;;0.60;0.55;;;;;;;12.93;47.88;96364.13;5211101;27;20003;-87
2024/04/17 03:25:42;;;;;;;0.73;0.47;;;;;;;12.94;47.67;96359.69;5263134;27;20060;-87
2024/04/17 03:28:08;;;;;;;0.80;0.43;;;;;;;12.98;48.06;96376.38;5259484;27;20003;-87
2024/04/17 03:30:33;;;;;;;1.88;0.40;;;;;;;13.04;47.94;96384.91;5246801;27;20010;-87
2024/04/17 03:32:58;;;;;;;0.80;0.50;;;;;;;13.07;47.83;96379.94;5223340;27;20078;-84
2024/04/17 03:35:24;;;;;;;1.17;0.70;;;;;;;12.91;47.79;96361.03;5231947;27;20029;-85
2024/04/17 03:37:49;;;;;;;0.63;0.43;;;;;;;13.01;47.68;96390.72;5292407;27;20009;-85
2024/04/17 03:40:15;;;;;;;0.75;0.50;;;;;;;13.14;47.75;96391.88;5232398;27;20007;-85
2024/04/17 03:42:40;;;;;;;0.63;0.50;;;;;;;12.95;48.01;96386.59;5251506;27;20514;-87
2024/04/17 03:45:05;;;;;;;0.60;0.40;;;;;;;12.74;47.99;96371.16;5221461;27;20009;-87
2024/04/17 03:47:31;;;;;;;1.02;0.50;;;;;;;13.02;47.82;96397.50;5254684;27;20114;-87
2024/04/17 03:50:06;;;;;;;1.23;0.90;;;;;;;13.13;47.95;96406.78;5233273;27;20014;-86
2024/04/17 03:52:32;;;;;;;0.95;0.80;;;;;;;12.95;48.19;96394.44;5268451;27;20347;-86
2024/04/17 03:54:58;;;;;;;1.52;1.00;;;;;;;13.08;47.78;96399.00;5259796;27;20088;-86
2024/04/17 03:57:24;;;;;;;1.42;1.00;;;;;;;12.96;48.14;96401.22;5228032;27;20357;-87
2024/04/17 03:59:50;;;;;;;1.33;0.93;;;;;;;12.87;48.11;96380.94;5216641;27;20022;-87
2024/04/17 04:02:15;;;;;;;1.73;0.90;;;;;;;12.94;47.52;96370.16;5224006;27;20085;-87
2024/04/17 04:04:41;;;;;;;1.73;1.00;;;;;;;13.01;47.76;96396.72;5220713;27;20040;-87
2024/04/17 04:07:06;;;;;;;1.75;1.02;;;;;;;12.99;47.72;96409.28;5297104;27;20352;-87
2024/04/17 04:09:32;;;;;;;1.70;1.10;;;;;;;13.05;48.01;96410.00;5251534;27;20341;-87
2024/04/17 04:11:57;;;;;;;2.15;1.42;;;;;;;13.10;48.10;96415.16;5227105;27;20334;-87
2024/04/17 04:14:22;;;;;;;1.67;1.10;;;;;;;13.14;47.88;96410.94;5222783;27;20389;-87
2024/04/17 04:16:48;;;;;;;2.58;1.83;;;;;;;12.98;48.29;96412.19;5256276;27;20013;-87
2024/04/17 04:19:13;;;;;;;1.98;1.30;;;;;;;13.08;48.17;96417.28;5253087;27;20406;-86
2024/04/17 04:21:39;;;;;;;2.72;1.35;;;;;;;13.06;48.00;96417.56;5260489;27;20002;-86
2024/04/17 04:24:05;;;;;;;1.77;1.15;;;;;;;13.16;48.00;96413.28;5229320;27;20471;-87
2024/04/17 04:26:31;;;;;;;2.08;1.33;;;;;;;13.04;47.77;96396.16;5247191;27;20029;-87
2024/04/17 04:28:57;;;;;;;2.10;1.58;;;;;;;13.16;47.58;96408.03;5276447;27;20397;-87
2024/04/17 04:31:23;;;;;;;2.30;1.95;;;;;;;13.23;47.70;96418.94;5249990;27;20017;-86
2024/04/17 04:33:49;;;;;;;1.83;1.13;;;;;;;13.04;48.05;96406.63;5222737;27;20224;-86
2024/04/17 04:36:14;;;;;;;2.15;1.55;;;;;;;13.04;47.99;96403.22;5258177;27;20058;-83
2024/04/17 04:38:40;;;;;;;1.90;1.38;;;;;;;13.07;47.58;96413.91;5255114;27;20033;-86
2024/04/17 04:41:05;;;;;;;2.80;1.77;;;;;;;13.06;48.11;96414.19;5257711;27;20005;-85
2024/04/17 04:43:31;;;;;;;2.42;1.92;;;;;;;13.24;48.22;96446.66;5265110;27;20459;-85
2024/04/17 04:45:56;;;;;;;2.72;1.80;;;;;;;13.25;47.95;96441.13;5269796;27;20013;-85
2024/04/17 04:48:24;;;;;;;3.75;2.05;;;;;;;13.29;48.18;96439.50;5248244;27;20005;-84
2024/04/17 04:50:50;;;;;;;2.60;1.83;;;;;;;13.25;48.32;96442.97;5257435;27;20032;-85
2024/04/17 04:53:15;;;;;;;2.92;2.10;;;;;;;13.23;48.34;96445.06;5214902;27;20007;-85
2024/04/17 04:55:40;;;;;;;4.75;2.10;;;;;;;13.27;48.24;96441.63;5225561;27;20046;-84
2024/04/17 04:58:06;;;;;;;2.90;2.03;;;;;;;13.22;47.99;96433.84;5248340;27;20006;-85
2024/04/17 05:00:31;;;;;;;3.55;2.20;;;;;;;13.16;48.45;96429.75;5237493;27;20037;-84
2024/04/17 05:02:57;;;;;;;3.17;2.65;;;;;;;13.27;48.13;96452.09;5224110;27;20021;-84
2024/04/17 05:05:22;;;;;;;3.95;2.53;;;;;;;13.22;48.26;96456.59;5224367;27;20026;-84
2024/04/17 05:07:49;;;;;;;4.00;2.80;;;;;;;12.97;48.27;96432.31;5205262;27;20019;-87
2024/04/17 05:10:15;;;;;;;3.72;2.60;;;;;;;13.14;48.05;96442.28;5279940;27;20361;-84
2024/04/17 05:12:40;;;;;;;4.65;3.33;;;;;;;13.32;48.08;96466.22;5262020;27;20005;-85
2024/04/17 05:15:06;;;;;;;3.70;2.60;;;;;;;13.15;48.07;96456.16;5247609;27;20521;-84
2024/04/17 05:17:32;;;;;;;3.83;2.97;;;;;;;12.94;48.34;96438.09;5245340;27;20597;-85
2024/04/17 05:19:58;;;;;;;3.40;2.60;;;;;;;12.93;48.28;96452.19;5264192;27;19997;-86
2024/04/17 05:22:23;;;;;;;4.28;2.65;;;;;;;13.28;48.18;96458.88;5382056;21;20011;-84
2024/04/17 05:24:49;;;;;;;4.85;2.72;;;;;;;13.30;48.18;96463.84;5281727;21;20913;-85
2024/04/17 05:27:15;;;;;;;4.40;3.40;;;;;;;13.21;48.46;96458.44;5273553;22;20436;-84
2024/04/17 05:29:40;;;;;;;5.13;3.13;;;;;;;13.22;48.44;96464.44;5206951;27;20060;-85
2024/04/17 05:44:57;;;;;;;8.00;3.63;;;;;;;13.35;48.36;96489.16;5921042;21;20908;-84
2024/04/17 05:47:23;;;;;;;6.90;3.70;;;;;;;13.33;48.45;96489.44;5325372;21;20507;-84
2024/04/17 05:49:48;;;;;;;7.00;4.60;;;;;;;13.29;48.32;96468.28;5270063;27;20370;-85
2024/04/17 05:52:14;;;;;;;8.50;4.32;;;;;;;13.28;48.39;96485.03;5270197;27;20036;-85
2024/04/17 05:54:39;;;;;;;5.55;4.15;;;;;;;13.42;48.09;96474.69;5250188;27;20552;-85
2024/04/17 05:57:05;;;;;;;8.85;4.47;;;;;;;13.46;48.55;96478.31;5245530;27;20028;-85
2024/04/17 05:59:30;;;;;;;10.48;5.53;;;;;;;13.58;47.97;96490.22;5243779;27;20025;-84
2024/04/17 06:01:57;;;;;;;7.82;5.05;;;;;;;13.73;48.26;96500.50;5274869;27;20020;-88
2024/04/17 06:04:23;;;;;;;7.05;5.10;;;;;;;13.79;48.02;96493.34;5252319;27;20463;-88
2024/04/17 06:06:49;;;;;;;10.73;5.70;;;;;;;13.68;47.85;96503.94;5274590;27;20014;-87
2024/04/17 06:09:15;;;;;;;8.25;5.85;;;;;;;13.73;47.99;96510.19;5217607;26;20349;-87
2024/04/17 06:11:40;;;;;;;9.88;6.38;;;;;;;13.68;47.98;96506.56;5218628;27;20009;-84
2024/04/17 06:14:06;;;;;;;11.32;6.95;;;;;;;13.38;47.76;96484.16;5246368;27;20036;-85
2024/04/17 06:16:31;;;;;;;10.60;6.53;;;;;;;13.60;47.98;96494.09;5248091;27;20017;-85
2024/04/17 06:18:56;;;;;;;12.38;7.10;;;;;;;13.74;47.82;96507.25;5245861;27;20069;-85
2024/04/17 06:21:22;;;;;;;14.25;7.35;;;;;;;13.65;47.60;96499.25;5218362;27;20028;-86
2024/04/17 06:23:47;;;;;;;9.52;6.28;;;;;;;14.02;47.63;96518.69;5274350;27;20459;-85
2024/04/17 06:26:13;;;;;;;9.85;6.22;;;;;;;13.81;47.88;96512.16;5250345;27;20010;-85
2024/04/17 06:28:38;;;;;;;8.52;5.75;;;;;;;13.90;48.28;96520.16;5232112;27;20021;-85
2024/04/17 06:31:04;;;;;;;11.88;6.20;;;;;;;14.02;48.10;96510.06;5275437;27;20408;-85
2024/04/17 06:33:29;;;;;;;11.02;6.88;;;;;;;14.06;47.68;96511.06;5221527;27;20018;-86
2024/04/17 06:35:55;;;;;;;9.07;5.78;;;;;;;14.01;47.81;96522.38;5237484;27;20064;-87
2024/04/17 06:38:21;;;;;;;12.10;6.45;;;;;;;14.01;47.26;96503.28;5247677;27;20535;-84
2024/04/17 06:40:46;;;;;;;12.13;6.68;;;;;;;14.20;46.92;96516.34;5224845;27;20010;-88
2024/04/17 06:43:12;;;;;;;13.07;7.28;;;;;;;14.19;47.34;96517.44;5249579;27;20447;-85
2024/04/17 06:45:37;;;;;;;11.25;5.90;;;;;;;13.95;47.09;96507.81;5224609;26;20020;-84
2024/04/17 06:48:04;;;;;;;10.02;6.50;;;;;;;14.07;46.73;96527.53;5254311;27;20369;-89
2024/04/17 06:50:29;;;;;;;10.05;6.00;;;;;;;13.83;46.66;96494.38;5244906;27;20010;-83
2024/04/17 06:52:55;;;;;;;12.10;6.93;;;;;;;13.87;48.02;96531.97;5249599;27;20519;-84
2024/04/17 06:55:20;;;;;;;10.00;6.18;;;;;;;13.98;47.46;96522.94;5222175;27;20024;-84
2024/04/17 06:57:46;;;;;;;13.23;6.53;;;;;;;13.76;47.60;96512.22;5281525;27;20010;-86
2024/04/17 07:00:12;;;;;;;8.32;5.82;;;;;;;13.94;47.03;96519.31;5279287;27;20113;-86
2024/04/17 07:02:37;;;;;;;12.50;6.78;;;;;;;13.98;47.25;96533.41;5248195;27;20025;-86
2024/04/17 07:05:03;;;;;;;12.80;6.30;;;;;;;14.03;47.43;96545.63;5214273;27;20023;-85
2024/04/17 07:07:28;;;;;;;10.75;6.55;;;;;;;14.10;47.39;96543.44;5231494;27;20014;-87
2024/04/17 07:09:54;;;;;;;10.50;6.60;;;;;;;14.09;47.49;96533.28;5242334;27;20001;-85
2024/04/17 07:12:19;;;;;;;10.55;6.75;;;;;;;14.24;46.80;96533.84;5249271;27;20005;-84
2024/04/17 07:14:45;;;;;;;10.63;5.75;;;;;;;14.11;47.52;96544.25;5278558;27;20006;-85
2024/04/17 07:17:11;;;;;;;10.48;6.07;;;;;;;14.22;46.30;96543.84;5224414;27;20021;-81
2024/04/17 07:19:36;;;;;;;11.00;6.03;;;;;;;14.33;46.36;96554.94;5314319;27;20052;-82
2024/04/17 07:22:02;;;;;;;11.65;6.50;;;;;;;14.14;46.36;96541.06;5302173;22;19997;-85
2024/04/17 07:24:27;;;;;;;10.90;5.95;;;;;;;14.16;46.35;96531.84;5284296;27;20021;-83
2024/04/17 07:26:53;;;;;;;10.07;6.35;;;;;;;14.31;47.09;96553.66;5286910;27;20002;-82
2024/04/17 07:29:19;;;;;;;11.98;6.38;;;;;;;14.51;46.17;96518.53;5290344;27;20006;-83
2024/04/17 07:31:44;;;;;;;13.02;6.20;;;;;;;15.05;46.58;96547.84;5266819;27;20026;-82
2024/04/17 07:34:10;;;;;;;8.75;6.03;;;;;;;15.01;45.94;96537.16;5294272;27;20030;-87
2024/04/17 07:36:36;;;;;;;10.20;6.32;;;;;;;14.74;45.40;96530.78;5256133;27;20094;-83
2024/04/17 07:39:02;;;;;;;8.38;6.07;;;;;;;14.75;44.80;96540.22;5288175;27;20010;-82
2024/04/17 07:41:28;;;;;;;11.23;6.43;;;;;;;14.64;45.55;96546.66;5231085;27;20006;-83
2024/04/17 07:43:55;;;;;;;10.35;5.90;;;;;;;14.79;44.46;96556.91;5281282;27;20017;-84
2024/04/17 07:46:21;;;;;;;10.63;5.80;;;;;;;14.66;45.24;96555.00;5280335;27;20018;-84
2024/04/17 07:48:47;;;;;;;8.68;5.80;;;;;;;14.62;44.88;96546.16;5299927;27;20057;-82
2024/04/17 07:51:12;;;;;;;11.38;6.65;;;;;;;14.57;45.57;96546.22;5273749;27;20002;-83
2024/04/17 07:53:38;;;;;;;10.85;6.07;;;;;;;14.40;45.55;96529.16;5299664;27;20010;-82
2024/04/17 07:56:03;;;;;;;8.15;5.22;;;;;;;14.73;45.07;96534.44;5261810;27;20062;-81
2024/04/17 07:58:29;;;;;;;9.50;5.53;;;;;;;15.21;44.30;96545.75;5260688;27;20018;-84
2024/04/17 08:00:54;;;;;;;8.93;4.93;;;;;;;15.20;43.44;96552.03;5240955;27;20433;-83
2024/04/17 08:03:20;;;;;;;8.48;5.05;;;;;;;14.90;43.41;96554.13;5261587;27;19997;-83
2024/04/17 08:05:45;;;;;;;9.88;5.80;;;;;;;14.45;45.31;96532.78;5301816;27;20020;-84
2024/04/17 08:08:14;;;;;;;7.70;5.07;;;;;;;14.87;43.61;96554.69;5252937;27;20056;-83
2024/04/17 08:10:40;;;;;;;10.32;5.75;;;;;;;14.76;44.38;96554.84;5228717;27;20006;-83
2024/04/17 08:13:12;;;;;;;8.40;5.70;;;;;;;14.77;44.26;96559.03;5288600;27;20415;-82
2024/04/17 08:15:45;;;;;;;10.50;5.10;;;;;;;14.92;42.94;96544.13;5272681;27;20018;-81
2024/04/17 08:18:11;;;;;;;7.53;4.28;;;;;;;14.94;43.59;96555.88;5242903;27;20007;-81
2024/04/17 08:20:38;;;;;;;6.03;4.32;;;;;;;15.08;43.23;96555.13;5228205;27;20417;-81
2024/04/17 08:23:03;;;;;;;7.43;4.63;;;;;;;14.88;43.23;96553.63;5306146;22;20015;-84
2024/04/17 08:25:29;;;;;;;6.05;4.03;;;;;;;14.98;43.01;96554.25;5144435;27;20048;-82
2024/04/17 08:27:55;;;;;;;7.82;4.80;;;;;;;15.11;43.33;96563.22;5175937;27;20020;-82
2024/04/17 08:30:20;;;;;;;5.72;3.90;;;;;;;15.35;43.07;96551.78;5152566;27;20035;-82
2024/04/17 08:32:46;;;;;;;9.13;4.30;;;;;;;15.55;41.96;96537.50;5175006;27;20018;-85
2024/04/17 08:35:11;;;;;;;5.45;4.28;;;;;;;15.54;42.44;96557.72;5174516;27;20008;-85
2024/04/17 08:37:37;;;;;;;7.55;4.82;;;;;;;15.61;42.38;96561.78;5274717;22;20019;-88
2024/04/17 08:40:04;;;;;;;6.72;4.55;;;;;;;15.89;42.08;96555.50;5186463;27;20007;-86
2024/04/17 08:42:33;;;;;;;8.18;4.22;;;;;;;15.83;40.55;96561.91;5182815;27;20070;-87
2024/04/17 08:45:06;;;;;;;6.18;3.58;;;;;;;15.84;40.81;96531.19;5176947;27;20509;-87
2024/04/17 08:47:31;;;;;;;5.05;3.08;;;;;;;15.64;39.25;96541.00;5185959;27;20447;-85
2024/04/17 08:49:58;;;;;;;5.28;3.05;;;;;;;16.03;38.57;96552.09;5194323;27;20002;-84
2024/04/17 08:52:23;;;;;;;10.00;4.30;;;;;;;16.56;40.57;96548.81;5214685;27;20007;-84
2024/04/17 08:54:49;;;;;;;6.72;4.05;;;;;;;16.62;38.32;96566.03;5190747;27;20007;-83
2024/04/17 08:57:15;;;;;;;6.90;3.72;;;;;;;16.31;38.10;96567.78;5172899;27;19996;-83
2024/04/17 08:59:40;;;;;;;6.03;3.50;;;;;;;15.83;39.21;96575.03;5671587;22;20015;-87
2024/04/17 09:02:13;;;;;;;6.65;4.00;;;;;;;15.80;39.18;96531.03;5397033;21;20068;-84
2024/04/17 09:04:43;;;;;;;5.78;3.78;;;;;;;15.96;40.26;96570.84;5408961;21;20086;-85
2024/04/17 09:07:10;;;;;;;5.47;3.58;;;;;;;15.45;40.20;96542.94;5238958;27;20040;-89
2024/04/17 09:09:39;;;;;;;6.22;3.80;;;;;;;15.68;39.96;96580.56;5283025;27;20044;-88
2024/04/17 09:12:06;;;;;;;4.57;3.25;;;;;;;15.61;39.09;96572.28;5242348;27;20234;-89
2024/04/17 09:14:32;;;;;;;5.32;3.45;;;;;;;15.67;39.70;96552.75;5245504;27;20030;-90
2024/04/17 09:16:58;;;;;;;6.55;4.20;;;;;;;15.91;40.57;96569.09;5264219;27;20092;-90
2024/04/17 09:19:23;;;;;;;4.70;3.25;;;;;;;15.77;39.86;96542.09;5251152;27;20464;-87
2024/04/17 09:21:50;;;;;;;5.57;3.60;;;;;;;16.03;38.31;96539.72;5220993;27;20014;-87
2024/04/17 09:24:16;;;;;;;4.88;3.75;;;;;;;16.74;38.58;96562.88;5254737;27;20091;-90
2024/04/17 09:26:41;;;;;;;4.03;3.20;;;;;;;16.84;37.04;96525.84;5211379;27;20388;-89
2024/04/17 09:29:06;;;;;;;5.18;2.80;;;;;;;17.07;36.29;96569.72;5207800;27;20010;-85
2024/04/17 09:31:32;;;;;;;6.13;2.63;;;;;;;17.35;36.05;96563.22;5242606;26;20029;-85
2024/04/17 09:34:00;;;;;;;3.67;2.20;;;;;;;17.07;34.50;96517.13;5257256;27;20006;-87
2024/04/17 09:36:27;;;;;;;3.80;2.78;;;;;;;17.01;35.24;96530.41;5270357;26;20053;-84
2024/04/17 09:38:53;;;;;;;4.93;2.60;;;;;;;17.12;35.11;96519.63;5244488;26;20010;-87
2024/04/17 09:41:19;;;;;;;5.68;3.08;;;;;;;17.51;33.29;96539.16;5233403;26;20330;-85
2024/04/17 09:43:46;;;;;;;4.30;3.05;;;;;;;18.08;34.47;96554.97;5281310;26;20106;-87
2024/04/17 09:46:16;;;;;;;3.30;2.35;;;;;;;18.30;33.59;96561.19;5214210;27;20319;-89
2024/04/17 09:48:42;;;;;;;2.55;2.35;;;;;;;17.77;32.76;96568.22;5265576;26;20010;-88
2024/04/17 09:51:12;;;;;;;2.90;2.35;;;;;;;17.66;32.66;96559.78;5297723;26;20010;-88
2024/04/17 09:53:47;;;;;;;3.03;2.20;;;;;;;17.18;31.97;96565.78;5246048;26;20028;-87
2024/04/17 09:56:13;;;;;;;4.20;2.20;;;;;;;16.57;34.51;96570.59;5273653;27;20006;-89
2024/04/17 09:58:38;;;;;;;4.53;2.17;;;;;;;16.59;32.59;96558.75;5234349;26;20045;-91
2024/04/17 10:01:06;;;;;;;3.13;2.00;;;;;;;16.77;33.15;96577.25;5245355;27;20014;-90
2024/04/17 10:03:35;;;;;;;3.58;2.00;;;;;;;16.67;33.53;96568.56;5253848;26;20005;-88
2024/04/17 10:06:01;;;;;;;3.10;2.78;;;;;;;16.62;35.15;96570.50;5207403;26;20027;-88
2024/04/17 10:08:29;;;;;;;4.00;3.00;;;;;;;16.94;34.10;96574.00;5234269;27;20092;-89
2024/04/17 10:10:55;;;;;;;4.07;2.75;;;;;;;17.11;35.13;96554.91;5233899;26;20080;-88
2024/04/17 10:13:22;;;;;;;4.43;2.78;;;;;;;16.99;33.89;96540.47;5278303;26;21980;-88
2024/04/17 10:15:52;;;;;;;3.47;2.53;;;;;;;17.14;34.65;96570.09;5836391;21;20008;-87
2024/04/17 10:18:18;;;;;;;4.22;2.38;;;;;;;17.11;33.46;96554.91;5264491;27;20014;-83
2024/04/17 10:20:44;;;;;;;3.10;2.25;;;;;;;17.31;32.95;96558.91;5255985;27;20461;-84
2024/04/17 10:23:12;;;;;;;3.80;2.13;;;;;;;17.42;32.48;96547.00;5204664;27;20052;-82
2024/04/17 10:25:54;;;;;;;4.53;2.30;;;;;;;17.50;32.08;96550.78;5247183;27;20057;-81
2024/04/17 10:28:21;;;;;;;4.45;2.58;;;;;;;17.34;31.78;96538.00;5200613;27;20066;-83
2024/04/17 10:30:52;;;;;;;3.30;3.00;;;;;;;17.70;32.00;96550.22;5226356;27;20504;-82
2024/04/17 10:33:29;;;;;;;2.35;2.10;;;;;;;17.82;32.59;96554.09;5212383;27;20002;-83
2024/04/17 10:35:56;;;;;;;2.33;1.98;;;;;;;18.16;29.98;96542.88;5268893;27;20519;-84
2024/04/17 10:38:23;;;;;;;3.65;2.08;;;;;;;18.05;30.39;96545.03;5235577;27;20007;-83
2024/04/17 10:40:51;;;;;;;3.30;2.05;;;;;;;17.32;32.23;96521.72;5194482;27;20020;-80
2024/04/17 10:43:16;;;;;;;3.90;2.00;;;;;;;17.62;32.21;96542.28;5210730;27;20023;-83
2024/04/17 10:45:58;;;;;;;3.80;1.77;;;;;;;18.25;30.45;96543.69;5182243;27;20432;-83
2024/04/17 10:48:24;;;;;;;2.88;2.55;;;;;;;18.29;31.21;96523.53;5212525;27;20588;-84
2024/04/17 10:50:50;;;;;;;3.53;1.88;;;;;;;18.12;29.25;96536.69;5230804;27;20355;-81
2024/04/17 10:53:16;;;;;;;2.25;1.75;;;;;;;18.01;31.31;96536.22;5246931;27;20018;-81
2024/04/17 10:55:42;;;;;;;3.08;1.90;;;;;;;18.15;32.00;96528.16;5217682;27;20073;-82
2024/04/17 10:58:09;;;;;;;2.25;1.65;;;;;;;18.03;30.03;96523.50;5217658;27;20069;-80
2024/04/17 11:00:35;;;;;;;2.13;1.70;;;;;;;18.40;30.98;96513.44;5225935;27;20089;-83
2024/04/17 11:03:00;;;;;;;3.33;1.63;;;;;;;18.77;28.01;96518.38;5275853;27;20035;-83
2024/04/17 11:05:26;;;;;;;2.78;1.48;;;;;;;19.07;28.59;96520.03;5192335;27;20006;-83
2024/04/17 11:07:56;;;;;;;3.40;1.75;;;;;;;19.46;28.14;96520.03;5220457;27;20070;-81
2024/04/17 11:10:21;;;;;;;3.42;1.60;;;;;;;19.73;27.27;96508.25;5249731;27;20033;-83
2024/04/17 11:12:47;;;;;;;3.63;1.80;;;;;;;19.81;28.07;96509.34;5216384;27;20007;-82
2024/04/17 11:15:13;;;;;;;2.67;1.70;;;;;;;20.01;26.71;96518.34;5212683;27;20018;-81
2024/04/17 11:17:42;;;;;;;2.55;1.83;;;;;;;19.42;26.70;96513.84;5233748;27;20031;-83
2024/04/17 11:20:09;;;;;;;4.47;1.52;;;;;;;19.27;26.63;96518.56;5184241;27;20046;-82
2024/04/17 11:22:35;;;;;;;2.83;1.60;;;;;;;19.32;28.53;96519.47;5216075;27;20029;-83
2024/04/17 11:25:03;;;;;;;4.72;1.20;;;;;;;19.75;27.02;96510.59;5235136;27;20596;-82
2024/04/17 11:27:29;;;;;;;3.00;1.08;;;;;;;20.53;25.65;96517.19;5261153;27;20015;-85
2024/04/17 11:29:54;;;;;;;3.90;1.38;;;;;;;19.84;26.58;96511.31;5223409;27;20046;-83
2024/04/17 11:32:19;;;;;;;2.67;1.20;;;;;;;20.02;26.40;96493.47;5208598;27;20006;-90
2024/04/17 11:34:45;;;;;;;2.15;1.25;;;;;;;19.47;28.42;96500.47;5230124;27;20021;-86
2024/04/17 11:37:12;;;;;;;2.83;1.40;;;;;;;19.35;27.18;96510.94;5247091;27;20488;-86
2024/04/17 11:39:38;;;;;;;2.20;1.30;;;;;;;19.05;26.57;96506.34;5182931;27;20018;-82